sensor_id;sensor_type;location;lat;lon;timestamp;P1;durP1;ratioP1;P2;durP2;ratioP2
16880;SDS011;8557;52.068;5.198;2023-02-26T00:01:44;8.15;;;3.53;;
16880;SDS011;8557;52.068;5.198;2023-02-26T00:04:15;6.20;;;3.03;;
16880;SDS011;8557;52.068;5.198;2023-02-26T00:06:42;7.22;;;2.88;;
16880;SDS011;8557;52.068;5.198;2023-02-26T00:09:18;5.20;;;2.65;;
16880;SDS011;8557;52.068;5.198;2023-02-26T00:11:45;7.82;;;3.20;;
16880;SDS011;8557;52.068;5.198;2023-02-26T00:14:13;6.45;;;2.72;;
16880;SDS011;8557;52.068;5.198;2023-02-26T00:16:41;7.25;;;2.25;;
16880;SDS011;8557;52.068;5.198;2023-02-26T00:19:12;5.03;;;2.47;;
16880;SDS011;8557;52.068;5.198;2023-02-26T00:21:41;4.93;;;2.17;;
16880;SDS011;8557;52.068;5.198;2023-02-26T00:24:11;6.00;;;2.58;;
16880;SDS011;8557;52.068;5.198;2023-02-26T00:26:40;7.20;;;2.47;;
16880;SDS011;8557;52.068;5.198;2023-02-26T00:29:07;6.90;;;2.17;;
16880;SDS011;8557;52.068;5.198;2023-02-26T00:31:34;3.92;;;2.00;;
16880;SDS011;8557;52.068;5.198;2023-02-26T00:34:01;4.20;;;1.85;;
16880;SDS011;8557;52.068;5.198;2023-02-26T00:36:32;3.53;;;1.50;;
16880;SDS011;8557;52.068;5.198;2023-02-26T00:39:08;5.72;;;1.77;;
16880;SDS011;8557;52.068;5.198;2023-02-26T00:41:41;2.90;;;1.63;;
16880;SDS011;8557;52.068;5.198;2023-02-26T00:44:08;5.13;;;1.90;;
16880;SDS011;8557;52.068;5.198;2023-02-26T00:46:38;4.63;;;2.20;;
16880;SDS011;8557;52.068;5.198;2023-02-26T00:49:14;3.58;;;1.40;;
16880;SDS011;8557;52.068;5.198;2023-02-26T00:51:48;5.43;;;1.50;;
16880;SDS011;8557;52.068;5.198;2023-02-26T00:54:20;6.53;;;1.40;;
16880;SDS011;8557;52.068;5.198;2023-02-26T00:56:49;1.67;;;1.20;;
16880;SDS011;8557;52.068;5.198;2023-02-26T00:59:18;2.65;;;1.10;;
16880;SDS011;8557;52.068;5.198;2023-02-26T01:01:45;5.95;;;1.67;;
16880;SDS011;8557;52.068;5.198;2023-02-26T01:04:13;2.13;;;1.23;;
16880;SDS011;8557;52.068;5.198;2023-02-26T01:06:42;7.20;;;2.47;;
16880;SDS011;8557;52.068;5.198;2023-02-26T01:09:12;6.60;;;1.38;;
16880;SDS011;8557;52.068;5.198;2023-02-26T01:11:48;5.03;;;1.63;;
16880;SDS011;8557;52.068;5.198;2023-02-26T01:14:16;5.47;;;1.38;;
16880;SDS011;8557;52.068;5.198;2023-02-26T01:16:47;3.28;;;1.30;;
16880;SDS011;8557;52.068;5.198;2023-02-26T01:19:19;3.20;;;1.25;;
16880;SDS011;8557;52.068;5.198;2023-02-26T01:21:54;4.10;;;1.33;;
16880;SDS011;8557;52.068;5.198;2023-02-26T01:24:27;4.70;;;1.30;;
16880;SDS011;8557;52.068;5.198;2023-02-26T01:26:57;4.60;;;1.45;;
16880;SDS011;8557;52.068;5.198;2023-02-26T01:29:24;5.43;;;1.33;;
16880;SDS011;8557;52.068;5.198;2023-02-26T01:31:53;5.25;;;1.52;;
16880;SDS011;8557;52.068;5.198;2023-02-26T01:34:28;4.55;;;1.45;;
16880;SDS011;8557;52.068;5.198;2023-02-26T01:37:01;4.22;;;1.30;;
16880;SDS011;8557;52.068;5.198;2023-02-26T01:39:38;7.93;;;1.92;;
16880;SDS011;8557;52.068;5.198;2023-02-26T01:42:12;3.67;;;1.20;;
16880;SDS011;8557;52.068;5.198;2023-02-26T01:44:46;3.60;;;1.20;;
16880;SDS011;8557;52.068;5.198;2023-02-26T01:47:22;5.35;;;1.20;;
16880;SDS011;8557;52.068;5.198;2023-02-26T01:49:54;2.00;;;1.00;;
16880;SDS011;8557;52.068;5.198;2023-02-26T01:55:25;5.82;;;1.45;;
16880;SDS011;8557;52.068;5.198;2023-02-26T01:57:55;6.85;;;2.15;;
16880;SDS011;8557;52.068;5.198;2023-02-26T02:00:24;5.57;;;1.50;;
16880;SDS011;8557;52.068;5.198;2023-02-26T02:02:51;4.47;;;1.40;;
16880;SDS011;8557;52.068;5.198;2023-02-26T02:05:21;4.57;;;1.50;;
16880;SDS011;8557;52.068;5.198;2023-02-26T02:07:52;5.13;;;1.50;;
16880;SDS011;8557;52.068;5.198;2023-02-26T02:10:20;4.28;;;1.30;;
16880;SDS011;8557;52.068;5.198;2023-02-26T02:12:49;4.32;;;1.33;;
16880;SDS011;8557;52.068;5.198;2023-02-26T02:15:24;5.05;;;1.23;;
16880;SDS011;8557;52.068;5.198;2023-02-26T02:18:00;5.18;;;1.63;;
16880;SDS011;8557;52.068;5.198;2023-02-26T02:20:41;4.60;;;1.50;;
16880;SDS011;8557;52.068;5.198;2023-02-26T02:23:26;3.50;;;1.33;;
16880;SDS011;8557;52.068;5.198;2023-02-26T02:29:13;5.47;;;1.30;;
16880;SDS011;8557;52.068;5.198;2023-02-26T02:31:59;6.13;;;1.38;;
16880;SDS011;8557;52.068;5.198;2023-02-26T02:34:28;5.75;;;1.40;;
16880;SDS011;8557;52.068;5.198;2023-02-26T02:37:04;2.28;;;1.00;;
16880;SDS011;8557;52.068;5.198;2023-02-26T02:39:40;3.65;;;1.08;;
16880;SDS011;8557;52.068;5.198;2023-02-26T02:42:15;4.82;;;1.45;;
16880;SDS011;8557;52.068;5.198;2023-02-26T02:44:47;2.97;;;1.00;;
16880;SDS011;8557;52.068;5.198;2023-02-26T02:47:19;4.78;;;1.27;;
16880;SDS011;8557;52.068;5.198;2023-02-26T02:49:49;2.15;;;1.02;;
16880;SDS011;8557;52.068;5.198;2023-02-26T02:52:21;4.55;;;1.20;;
16880;SDS011;8557;52.068;5.198;2023-02-26T02:54:53;4.07;;;1.08;;
16880;SDS011;8557;52.068;5.198;2023-02-26T02:57:25;4.22;;;1.17;;
16880;SDS011;8557;52.068;5.198;2023-02-26T02:59:56;4.20;;;1.38;;
16880;SDS011;8557;52.068;5.198;2023-02-26T03:02:30;5.30;;;1.17;;
16880;SDS011;8557;52.068;5.198;2023-02-26T03:05:02;3.40;;;1.27;;
16880;SDS011;8557;52.068;5.198;2023-02-26T03:07:29;4.30;;;1.10;;
16880;SDS011;8557;52.068;5.198;2023-02-26T03:09:59;6.65;;;1.23;;
16880;SDS011;8557;52.068;5.198;2023-02-26T03:12:30;5.68;;;1.27;;
16880;SDS011;8557;52.068;5.198;2023-02-26T03:14:57;4.07;;;1.17;;
16880;SDS011;8557;52.068;5.198;2023-02-26T03:17:26;4.20;;;1.25;;
16880;SDS011;8557;52.068;5.198;2023-02-26T03:20:02;4.38;;;1.52;;
16880;SDS011;8557;52.068;5.198;2023-02-26T03:22:37;6.57;;;1.20;;
16880;SDS011;8557;52.068;5.198;2023-02-26T03:25:08;3.00;;;0.93;;
16880;SDS011;8557;52.068;5.198;2023-02-26T03:27:42;5.00;;;1.38;;
16880;SDS011;8557;52.068;5.198;2023-02-26T03:30:13;4.28;;;1.08;;
16880;SDS011;8557;52.068;5.198;2023-02-26T03:32:49;3.58;;;1.30;;
16880;SDS011;8557;52.068;5.198;2023-02-26T03:35:25;3.70;;;1.40;;
16880;SDS011;8557;52.068;5.198;2023-02-26T03:37:59;3.65;;;1.10;;
16880;SDS011;8557;52.068;5.198;2023-02-26T03:40:30;3.95;;;1.00;;
16880;SDS011;8557;52.068;5.198;2023-02-26T03:43:02;1.85;;;1.08;;
16880;SDS011;8557;52.068;5.198;2023-02-26T03:45:34;3.92;;;1.58;;
16880;SDS011;8557;52.068;5.198;2023-02-26T03:48:04;3.20;;;1.13;;
16880;SDS011;8557;52.068;5.198;2023-02-26T03:50:35;10.63;;;1.42;;
16880;SDS011;8557;52.068;5.198;2023-02-26T03:53:06;4.10;;;1.38;;
16880;SDS011;8557;52.068;5.198;2023-02-26T03:55:39;2.28;;;1.27;;
16880;SDS011;8557;52.068;5.198;2023-02-26T03:58:10;3.42;;;1.10;;
16880;SDS011;8557;52.068;5.198;2023-02-26T04:00:37;2.78;;;1.10;;
16880;SDS011;8557;52.068;5.198;2023-02-26T04:03:08;2.05;;;1.20;;
16880;SDS011;8557;52.068;5.198;2023-02-26T04:05:40;3.10;;;1.20;;
16880;SDS011;8557;52.068;5.198;2023-02-26T04:08:12;6.32;;;1.30;;
16880;SDS011;8557;52.068;5.198;2023-02-26T04:10:41;11.65;;;1.52;;
16880;SDS011;8557;52.068;5.198;2023-02-26T04:13:10;1.85;;;1.00;;
16880;SDS011;8557;52.068;5.198;2023-02-26T04:15:37;2.78;;;1.13;;
16880;SDS011;8557;52.068;5.198;2023-02-26T04:18:04;1.90;;;1.02;;
16880;SDS011;8557;52.068;5.198;2023-02-26T04:20:32;3.70;;;1.10;;
16880;SDS011;8557;52.068;5.198;2023-02-26T04:22:59;3.05;;;1.30;;
16880;SDS011;8557;52.068;5.198;2023-02-26T04:25:26;2.35;;;1.35;;
16880;SDS011;8557;52.068;5.198;2023-02-26T04:27:53;1.48;;;1.15;;
16880;SDS011;8557;52.068;5.198;2023-02-26T04:30:20;2.80;;;1.00;;
16880;SDS011;8557;52.068;5.198;2023-02-26T04:32:47;3.20;;;1.20;;
16880;SDS011;8557;52.068;5.198;2023-02-26T04:35:14;2.33;;;1.20;;
16880;SDS011;8557;52.068;5.198;2023-02-26T04:37:42;5.07;;;1.20;;
16880;SDS011;8557;52.068;5.198;2023-02-26T04:40:09;2.78;;;1.10;;
16880;SDS011;8557;52.068;5.198;2023-02-26T04:42:37;4.35;;;1.30;;
16880;SDS011;8557;52.068;5.198;2023-02-26T04:45:04;3.85;;;1.10;;
16880;SDS011;8557;52.068;5.198;2023-02-26T04:47:31;2.30;;;1.02;;
16880;SDS011;8557;52.068;5.198;2023-02-26T04:49:58;4.10;;;1.20;;
16880;SDS011;8557;52.068;5.198;2023-02-26T04:52:25;4.28;;;1.20;;
16880;SDS011;8557;52.068;5.198;2023-02-26T04:54:53;5.00;;;1.30;;
16880;SDS011;8557;52.068;5.198;2023-02-26T04:57:20;1.92;;;1.08;;
16880;SDS011;8557;52.068;5.198;2023-02-26T04:59:47;1.40;;;1.00;;
16880;SDS011;8557;52.068;5.198;2023-02-26T05:02:14;3.92;;;1.02;;
16880;SDS011;8557;52.068;5.198;2023-02-26T05:04:40;4.90;;;0.93;;
16880;SDS011;8557;52.068;5.198;2023-02-26T05:07:07;3.30;;;1.00;;
16880;SDS011;8557;52.068;5.198;2023-02-26T05:09:34;3.28;;;1.27;;
16880;SDS011;8557;52.068;5.198;2023-02-26T05:12:02;2.22;;;0.90;;
16880;SDS011;8557;52.068;5.198;2023-02-26T05:14:29;2.90;;;1.23;;
16880;SDS011;8557;52.068;5.198;2023-02-26T05:16:56;3.75;;;1.40;;
16880;SDS011;8557;52.068;5.198;2023-02-26T05:19:23;3.47;;;1.00;;
16880;SDS011;8557;52.068;5.198;2023-02-26T05:21:49;1.60;;;1.00;;
16880;SDS011;8557;52.068;5.198;2023-02-26T05:24:16;3.58;;;1.10;;
16880;SDS011;8557;52.068;5.198;2023-02-26T05:26:43;1.02;;;0.90;;
16880;SDS011;8557;52.068;5.198;2023-02-26T05:29:12;2.65;;;1.30;;
16880;SDS011;8557;52.068;5.198;2023-02-26T05:31:38;3.28;;;0.90;;
16880;SDS011;8557;52.068;5.198;2023-02-26T05:34:05;4.05;;;1.05;;
16880;SDS011;8557;52.068;5.198;2023-02-26T05:36:33;1.65;;;1.00;;
16880;SDS011;8557;52.068;5.198;2023-02-26T05:39:00;2.03;;;0.90;;
16880;SDS011;8557;52.068;5.198;2023-02-26T05:41:27;3.67;;;1.00;;
16880;SDS011;8557;52.068;5.198;2023-02-26T05:43:53;3.45;;;0.90;;
16880;SDS011;8557;52.068;5.198;2023-02-26T05:46:22;3.53;;;1.05;;
16880;SDS011;8557;52.068;5.198;2023-02-26T05:48:48;3.95;;;1.15;;
16880;SDS011;8557;52.068;5.198;2023-02-26T05:51:15;1.88;;;1.00;;
16880;SDS011;8557;52.068;5.198;2023-02-26T05:53:42;4.43;;;1.13;;
16880;SDS011;8557;52.068;5.198;2023-02-26T05:56:09;3.83;;;1.33;;
16880;SDS011;8557;52.068;5.198;2023-02-26T05:58:36;4.28;;;1.33;;
16880;SDS011;8557;52.068;5.198;2023-02-26T06:01:03;2.10;;;1.10;;
16880;SDS011;8557;52.068;5.198;2023-02-26T06:03:32;2.78;;;1.10;;
16880;SDS011;8557;52.068;5.198;2023-02-26T06:05:59;3.00;;;1.23;;
16880;SDS011;8557;52.068;5.198;2023-02-26T06:08:25;6.05;;;1.83;;
16880;SDS011;8557;52.068;5.198;2023-02-26T06:10:52;1.58;;;1.10;;
16880;SDS011;8557;52.068;5.198;2023-02-26T06:13:19;2.87;;;1.10;;
16880;SDS011;8557;52.068;5.198;2023-02-26T06:15:46;5.05;;;1.30;;
16880;SDS011;8557;52.068;5.198;2023-02-26T06:18:16;2.17;;;1.30;;
16880;SDS011;8557;52.068;5.198;2023-02-26T06:20:44;3.05;;;1.10;;
16880;SDS011;8557;52.068;5.198;2023-02-26T06:23:11;3.47;;;1.08;;
16880;SDS011;8557;52.068;5.198;2023-02-26T06:25:39;3.97;;;1.00;;
16880;SDS011;8557;52.068;5.198;2023-02-26T06:28:06;2.85;;;1.25;;
16880;SDS011;8557;52.068;5.198;2023-02-26T06:30:33;5.15;;;1.35;;
16880;SDS011;8557;52.068;5.198;2023-02-26T06:33:00;3.83;;;1.10;;
16880;SDS011;8557;52.068;5.198;2023-02-26T06:35:27;3.40;;;1.03;;
16880;SDS011;8557;52.068;5.198;2023-02-26T06:37:55;3.00;;;1.00;;
16880;SDS011;8557;52.068;5.198;2023-02-26T06:40:22;2.10;;;1.03;;
16880;SDS011;8557;52.068;5.198;2023-02-26T06:42:49;2.25;;;1.10;;
16880;SDS011;8557;52.068;5.198;2023-02-26T06:45:15;3.80;;;1.10;;
16880;SDS011;8557;52.068;5.198;2023-02-26T06:47:42;2.95;;;1.10;;
16880;SDS011;8557;52.068;5.198;2023-02-26T06:50:10;4.07;;;1.23;;
16880;SDS011;8557;52.068;5.198;2023-02-26T06:52:37;2.43;;;1.07;;
16880;SDS011;8557;52.068;5.198;2023-02-26T06:55:06;2.00;;;1.00;;
16880;SDS011;8557;52.068;5.198;2023-02-26T06:57:33;5.80;;;1.25;;
16880;SDS011;8557;52.068;5.198;2023-02-26T07:00:00;2.70;;;1.20;;
16880;SDS011;8557;52.068;5.198;2023-02-26T07:02:28;3.30;;;1.60;;
16880;SDS011;8557;52.068;5.198;2023-02-26T07:04:54;4.93;;;1.15;;
16880;SDS011;8557;52.068;5.198;2023-02-26T07:07:21;2.10;;;1.17;;
16880;SDS011;8557;52.068;5.198;2023-02-26T07:09:48;3.03;;;1.00;;
16880;SDS011;8557;52.068;5.198;2023-02-26T07:12:16;2.38;;;1.20;;
16880;SDS011;8557;52.068;5.198;2023-02-26T07:14:43;2.15;;;1.13;;
16880;SDS011;8557;52.068;5.198;2023-02-26T07:17:10;2.80;;;1.13;;
16880;SDS011;8557;52.068;5.198;2023-02-26T07:19:44;1.70;;;1.10;;
16880;SDS011;8557;52.068;5.198;2023-02-26T07:22:11;4.03;;;1.00;;
16880;SDS011;8557;52.068;5.198;2023-02-26T07:24:39;2.67;;;1.08;;
16880;SDS011;8557;52.068;5.198;2023-02-26T07:27:05;2.63;;;1.48;;
16880;SDS011;8557;52.068;5.198;2023-02-26T07:29:34;2.50;;;1.20;;
16880;SDS011;8557;52.068;5.198;2023-02-26T07:32:01;4.15;;;1.25;;
16880;SDS011;8557;52.068;5.198;2023-02-26T07:34:28;3.33;;;1.30;;
16880;SDS011;8557;52.068;5.198;2023-02-26T07:36:55;3.97;;;1.20;;
16880;SDS011;8557;52.068;5.198;2023-02-26T07:39:23;1.48;;;0.98;;
16880;SDS011;8557;52.068;5.198;2023-02-26T07:41:51;4.43;;;1.00;;
16880;SDS011;8557;52.068;5.198;2023-02-26T07:44:18;4.97;;;1.20;;
16880;SDS011;8557;52.068;5.198;2023-02-26T07:46:47;3.30;;;1.15;;
16880;SDS011;8557;52.068;5.198;2023-02-26T07:49:14;4.35;;;1.17;;
16880;SDS011;8557;52.068;5.198;2023-02-26T07:51:41;2.75;;;1.20;;
16880;SDS011;8557;52.068;5.198;2023-02-26T07:54:10;5.07;;;1.20;;
16880;SDS011;8557;52.068;5.198;2023-02-26T07:56:37;3.30;;;1.25;;
16880;SDS011;8557;52.068;5.198;2023-02-26T07:59:05;3.70;;;1.10;;
16880;SDS011;8557;52.068;5.198;2023-02-26T08:01:32;4.35;;;1.17;;
16880;SDS011;8557;52.068;5.198;2023-02-26T08:04:01;4.28;;;1.00;;
16880;SDS011;8557;52.068;5.198;2023-02-26T08:06:28;3.83;;;1.33;;
16880;SDS011;8557;52.068;5.198;2023-02-26T08:08:55;2.22;;;1.08;;
16880;SDS011;8557;52.068;5.198;2023-02-26T08:11:22;2.30;;;1.00;;
16880;SDS011;8557;52.068;5.198;2023-02-26T08:13:49;4.35;;;1.17;;
16880;SDS011;8557;52.068;5.198;2023-02-26T08:16:16;2.83;;;1.20;;
16880;SDS011;8557;52.068;5.198;2023-02-26T08:18:43;3.40;;;0.98;;
16880;SDS011;8557;52.068;5.198;2023-02-26T08:21:11;2.65;;;1.20;;
16880;SDS011;8557;52.068;5.198;2023-02-26T08:23:38;6.63;;;1.15;;
16880;SDS011;8557;52.068;5.198;2023-02-26T08:26:05;2.70;;;0.90;;
16880;SDS011;8557;52.068;5.198;2023-02-26T08:28:34;4.85;;;1.10;;
16880;SDS011;8557;52.068;5.198;2023-02-26T08:31:02;2.20;;;1.00;;
16880;SDS011;8557;52.068;5.198;2023-02-26T08:33:29;1.88;;;1.00;;
16880;SDS011;8557;52.068;5.198;2023-02-26T08:35:56;3.55;;;1.13;;
16880;SDS011;8557;52.068;5.198;2023-02-26T08:38:24;5.07;;;1.27;;
16880;SDS011;8557;52.068;5.198;2023-02-26T08:40:51;3.33;;;1.10;;
16880;SDS011;8557;52.068;5.198;2023-02-26T08:43:18;2.60;;;1.20;;
16880;SDS011;8557;52.068;5.198;2023-02-26T08:45:46;1.95;;;1.00;;
16880;SDS011;8557;52.068;5.198;2023-02-26T08:48:13;2.83;;;1.00;;
16880;SDS011;8557;52.068;5.198;2023-02-26T08:50:40;1.63;;;1.13;;
16880;SDS011;8557;52.068;5.198;2023-02-26T08:53:07;2.65;;;0.90;;
16880;SDS011;8557;52.068;5.198;2023-02-26T08:55:36;2.35;;;1.10;;
16880;SDS011;8557;52.068;5.198;2023-02-26T08:58:03;4.35;;;1.02;;
16880;SDS011;8557;52.068;5.198;2023-02-26T09:00:30;2.70;;;1.05;;
16880;SDS011;8557;52.068;5.198;2023-02-26T09:02:57;2.92;;;1.10;;
16880;SDS011;8557;52.068;5.198;2023-02-26T09:05:24;1.52;;;0.77;;
16880;SDS011;8557;52.068;5.198;2023-02-26T09:07:51;1.88;;;0.80;;
16880;SDS011;8557;52.068;5.198;2023-02-26T09:10:18;1.20;;;0.80;;
16880;SDS011;8557;52.068;5.198;2023-02-26T09:12:46;3.08;;;1.00;;
16880;SDS011;8557;52.068;5.198;2023-02-26T09:15:13;2.67;;;1.10;;
16880;SDS011;8557;52.068;5.198;2023-02-26T09:17:40;2.75;;;0.90;;
16880;SDS011;8557;52.068;5.198;2023-02-26T09:20:08;3.60;;;1.00;;
16880;SDS011;8557;52.068;5.198;2023-02-26T09:22:38;4.10;;;0.90;;
16880;SDS011;8557;52.068;5.198;2023-02-26T09:25:06;3.00;;;0.75;;
16880;SDS011;8557;52.068;5.198;2023-02-26T09:27:33;2.67;;;0.90;;
16880;SDS011;8557;52.068;5.198;2023-02-26T09:30:02;1.92;;;0.98;;
16880;SDS011;8557;52.068;5.198;2023-02-26T09:32:29;2.15;;;0.90;;
16880;SDS011;8557;52.068;5.198;2023-02-26T09:34:56;1.20;;;0.85;;
16880;SDS011;8557;52.068;5.198;2023-02-26T09:37:22;3.05;;;0.98;;
16880;SDS011;8557;52.068;5.198;2023-02-26T09:39:49;3.03;;;0.90;;
16880;SDS011;8557;52.068;5.198;2023-02-26T09:42:20;2.80;;;0.90;;
16880;SDS011;8557;52.068;5.198;2023-02-26T09:44:54;4.75;;;1.35;;
16880;SDS011;8557;52.068;5.198;2023-02-26T09:47:26;3.92;;;1.10;;
16880;SDS011;8557;52.068;5.198;2023-02-26T09:49:56;1.75;;;0.80;;
16880;SDS011;8557;52.068;5.198;2023-02-26T09:52:31;2.55;;;0.95;;
16880;SDS011;8557;52.068;5.198;2023-02-26T09:55:04;2.55;;;0.80;;
16880;SDS011;8557;52.068;5.198;2023-02-26T09:57:37;1.85;;;1.05;;
16880;SDS011;8557;52.068;5.198;2023-02-26T10:00:14;1.50;;;0.60;;
16880;SDS011;8557;52.068;5.198;2023-02-26T10:02:52;2.58;;;0.70;;
16880;SDS011;8557;52.068;5.198;2023-02-26T10:05:28;2.50;;;0.90;;
16880;SDS011;8557;52.068;5.198;2023-02-26T10:08:03;1.60;;;1.00;;
16880;SDS011;8557;52.068;5.198;2023-02-26T10:10:34;4.53;;;0.80;;
16880;SDS011;8557;52.068;5.198;2023-02-26T10:13:06;2.70;;;1.15;;
16880;SDS011;8557;52.068;5.198;2023-02-26T10:15:43;3.53;;;0.93;;
16880;SDS011;8557;52.068;5.198;2023-02-26T10:18:13;1.90;;;0.70;;
16880;SDS011;8557;52.068;5.198;2023-02-26T10:20:46;1.40;;;0.77;;
16880;SDS011;8557;52.068;5.198;2023-02-26T10:23:19;3.30;;;0.80;;
16880;SDS011;8557;52.068;5.198;2023-02-26T10:25:51;3.15;;;0.88;;
16880;SDS011;8557;52.068;5.198;2023-02-26T10:28:27;1.45;;;0.70;;
16880;SDS011;8557;52.068;5.198;2023-02-26T10:31:04;1.83;;;0.77;;
16880;SDS011;8557;52.068;5.198;2023-02-26T10:33:39;2.60;;;0.80;;
16880;SDS011;8557;52.068;5.198;2023-02-26T10:36:14;4.95;;;0.90;;
16880;SDS011;8557;52.068;5.198;2023-02-26T10:38:45;5.82;;;1.27;;
16880;SDS011;8557;52.068;5.198;2023-02-26T10:41:17;2.53;;;0.80;;
16880;SDS011;8557;52.068;5.198;2023-02-26T10:43:50;6.55;;;0.95;;
16880;SDS011;8557;52.068;5.198;2023-02-26T10:46:21;3.65;;;0.85;;
16880;SDS011;8557;52.068;5.198;2023-02-26T10:49:00;3.58;;;0.85;;
16880;SDS011;8557;52.068;5.198;2023-02-26T10:51:46;1.65;;;0.70;;
16880;SDS011;8557;52.068;5.198;2023-02-26T10:54:18;3.78;;;0.80;;
16880;SDS011;8557;52.068;5.198;2023-02-26T10:56:47;1.60;;;0.80;;
16880;SDS011;8557;52.068;5.198;2023-02-26T10:59:14;3.47;;;0.85;;
16880;SDS011;8557;52.068;5.198;2023-02-26T11:01:41;2.88;;;0.70;;
16880;SDS011;8557;52.068;5.198;2023-02-26T11:04:11;1.98;;;0.70;;
16880;SDS011;8557;52.068;5.198;2023-02-26T11:06:43;1.92;;;0.80;;
16880;SDS011;8557;52.068;5.198;2023-02-26T11:09:15;3.10;;;0.80;;
16880;SDS011;8557;52.068;5.198;2023-02-26T11:11:46;1.20;;;0.80;;
16880;SDS011;8557;52.068;5.198;2023-02-26T11:14:16;2.72;;;1.02;;
16880;SDS011;8557;52.068;5.198;2023-02-26T11:16:45;2.33;;;1.60;;
16880;SDS011;8557;52.068;5.198;2023-02-26T11:19:16;2.30;;;0.90;;
16880;SDS011;8557;52.068;5.198;2023-02-26T11:21:48;1.63;;;0.73;;
16880;SDS011;8557;52.068;5.198;2023-02-26T11:24:18;1.70;;;0.70;;
16880;SDS011;8557;52.068;5.198;2023-02-26T11:26:53;1.58;;;0.77;;
16880;SDS011;8557;52.068;5.198;2023-02-26T11:29:21;4.20;;;1.30;;
16880;SDS011;8557;52.068;5.198;2023-02-26T11:31:50;1.52;;;0.60;;
16880;SDS011;8557;52.068;5.198;2023-02-26T11:34:22;1.52;;;0.88;;
16880;SDS011;8557;52.068;5.198;2023-02-26T11:36:50;2.42;;;0.85;;
16880;SDS011;8557;52.068;5.198;2023-02-26T11:39:20;2.08;;;0.88;;
16880;SDS011;8557;52.068;5.198;2023-02-26T11:41:49;2.05;;;0.80;;
16880;SDS011;8557;52.068;5.198;2023-02-26T11:44:18;1.63;;;0.90;;
16880;SDS011;8557;52.068;5.198;2023-02-26T11:46:51;3.78;;;1.00;;
16880;SDS011;8557;52.068;5.198;2023-02-26T11:49:22;2.30;;;0.95;;
16880;SDS011;8557;52.068;5.198;2023-02-26T11:52:00;0.60;;;0.60;;
16880;SDS011;8557;52.068;5.198;2023-02-26T11:54:30;1.67;;;0.90;;
16880;SDS011;8557;52.068;5.198;2023-02-26T11:57:01;1.48;;;1.08;;
16880;SDS011;8557;52.068;5.198;2023-02-26T11:59:32;2.40;;;0.90;;
16880;SDS011;8557;52.068;5.198;2023-02-26T12:02:00;1.38;;;0.73;;
16880;SDS011;8557;52.068;5.198;2023-02-26T12:04:32;1.90;;;0.82;;
16880;SDS011;8557;52.068;5.198;2023-02-26T12:06:58;1.27;;;0.75;;
16880;SDS011;8557;52.068;5.198;2023-02-26T12:09:25;2.17;;;0.90;;
16880;SDS011;8557;52.068;5.198;2023-02-26T12:12:06;1.95;;;0.80;;
16880;SDS011;8557;52.068;5.198;2023-02-26T12:14:49;2.85;;;0.90;;
16880;SDS011;8557;52.068;5.198;2023-02-26T12:17:37;2.20;;;0.68;;
16880;SDS011;8557;52.068;5.198;2023-02-26T12:20:18;1.48;;;0.70;;
16880;SDS011;8557;52.068;5.198;2023-02-26T12:22:50;1.70;;;0.90;;
16880;SDS011;8557;52.068;5.198;2023-02-26T12:34:23;2.35;;;0.70;;
16880;SDS011;8557;52.068;5.198;2023-02-26T12:37:27;1.48;;;0.80;;
16880;SDS011;8557;52.068;5.198;2023-02-26T12:40:05;0.90;;;0.70;;
16880;SDS011;8557;52.068;5.198;2023-02-26T12:42:43;2.25;;;1.05;;
16880;SDS011;8557;52.068;5.198;2023-02-26T12:45:29;1.10;;;0.90;;
16880;SDS011;8557;52.068;5.198;2023-02-26T12:48:13;2.05;;;0.80;;
16880;SDS011;8557;52.068;5.198;2023-02-26T12:51:08;1.95;;;0.80;;
16880;SDS011;8557;52.068;5.198;2023-02-26T12:53:48;0.70;;;0.60;;
16880;SDS011;8557;52.068;5.198;2023-02-26T12:56:32;2.15;;;0.80;;
16880;SDS011;8557;52.068;5.198;2023-02-26T12:59:13;1.90;;;0.75;;
16880;SDS011;8557;52.068;5.198;2023-02-26T13:02:08;2.05;;;0.73;;
16880;SDS011;8557;52.068;5.198;2023-02-26T13:05:06;2.72;;;0.73;;
16880;SDS011;8557;52.068;5.198;2023-02-26T13:07:55;1.30;;;0.60;;
16880;SDS011;8557;52.068;5.198;2023-02-26T13:10:40;2.10;;;0.60;;
16880;SDS011;8557;52.068;5.198;2023-02-26T13:16:21;1.95;;;0.60;;
16880;SDS011;8557;52.068;5.198;2023-02-26T13:18:58;2.30;;;0.50;;
16880;SDS011;8557;52.068;5.198;2023-02-26T13:21:32;0.90;;;0.50;;
16880;SDS011;8557;52.068;5.198;2023-02-26T13:24:01;0.40;;;0.40;;
16880;SDS011;8557;52.068;5.198;2023-02-26T13:26:34;1.45;;;0.68;;
16880;SDS011;8557;52.068;5.198;2023-02-26T13:29:03;1.67;;;0.70;;
16880;SDS011;8557;52.068;5.198;2023-02-26T13:31:35;2.75;;;0.90;;
16880;SDS011;8557;52.068;5.198;2023-02-26T13:34:06;1.27;;;0.60;;
16880;SDS011;8557;52.068;5.198;2023-02-26T13:36:38;0.75;;;0.55;;
16880;SDS011;8557;52.068;5.198;2023-02-26T13:39:13;0.80;;;0.80;;
16880;SDS011;8557;52.068;5.198;2023-02-26T13:42:00;1.08;;;0.50;;
16880;SDS011;8557;52.068;5.198;2023-02-26T13:44:34;0.82;;;0.52;;
16880;SDS011;8557;52.068;5.198;2023-02-26T13:47:13;1.20;;;0.88;;
16880;SDS011;8557;52.068;5.198;2023-02-26T13:50:02;1.02;;;0.90;;
16880;SDS011;8557;52.068;5.198;2023-02-26T13:52:48;2.83;;;1.30;;
16880;SDS011;8557;52.068;5.198;2023-02-26T13:58:17;2.03;;;0.73;;
16880;SDS011;8557;52.068;5.198;2023-02-26T14:00:58;2.08;;;0.77;;
16880;SDS011;8557;52.068;5.198;2023-02-26T14:03:31;0.75;;;0.60;;
16880;SDS011;8557;52.068;5.198;2023-02-26T14:06:08;3.30;;;0.60;;
16880;SDS011;8557;52.068;5.198;2023-02-26T14:08:48;0.90;;;0.70;;
16880;SDS011;8557;52.068;5.198;2023-02-26T14:11:24;2.00;;;0.70;;
16880;SDS011;8557;52.068;5.198;2023-02-26T14:14:23;1.65;;;0.70;;
16880;SDS011;8557;52.068;5.198;2023-02-26T14:17:17;1.00;;;0.80;;
16880;SDS011;8557;52.068;5.198;2023-02-26T14:20:14;0.68;;;0.38;;
16880;SDS011;8557;52.068;5.198;2023-02-26T14:22:46;1.08;;;0.30;;
16880;SDS011;8557;52.068;5.198;2023-02-26T14:25:18;1.42;;;0.40;;
16880;SDS011;8557;52.068;5.198;2023-02-26T14:28:17;0.80;;;0.50;;
16880;SDS011;8557;52.068;5.198;2023-02-26T14:30:48;1.67;;;0.50;;
16880;SDS011;8557;52.068;5.198;2023-02-26T14:33:17;1.35;;;0.65;;
16880;SDS011;8557;52.068;5.198;2023-02-26T14:35:51;1.02;;;0.55;;
16880;SDS011;8557;52.068;5.198;2023-02-26T14:38:20;1.40;;;0.50;;
16880;SDS011;8557;52.068;5.198;2023-02-26T14:40:50;1.38;;;0.50;;
16880;SDS011;8557;52.068;5.198;2023-02-26T14:43:26;1.42;;;0.50;;
16880;SDS011;8557;52.068;5.198;2023-02-26T14:46:01;1.40;;;0.40;;
16880;SDS011;8557;52.068;5.198;2023-02-26T14:48:29;1.23;;;0.85;;
16880;SDS011;8557;52.068;5.198;2023-02-26T14:51:02;1.55;;;0.60;;
16880;SDS011;8557;52.068;5.198;2023-02-26T14:53:49;0.85;;;0.43;;
16880;SDS011;8557;52.068;5.198;2023-02-26T14:56:38;1.83;;;0.65;;
16880;SDS011;8557;52.068;5.198;2023-02-26T14:59:23;1.77;;;0.50;;
16880;SDS011;8557;52.068;5.198;2023-02-26T15:02:07;0.95;;;0.50;;
16880;SDS011;8557;52.068;5.198;2023-02-26T15:07:47;0.52;;;0.32;;
16880;SDS011;8557;52.068;5.198;2023-02-26T15:10:28;1.90;;;0.63;;
16880;SDS011;8557;52.068;5.198;2023-02-26T15:13:13;0.98;;;0.60;;
16880;SDS011;8557;52.068;5.198;2023-02-26T15:15:52;1.02;;;0.50;;
16880;SDS011;8557;52.068;5.198;2023-02-26T15:18:30;1.55;;;0.68;;
16880;SDS011;8557;52.068;5.198;2023-02-26T15:21:16;2.50;;;0.73;;
16880;SDS011;8557;52.068;5.198;2023-02-26T15:23:51;2.15;;;0.88;;
16880;SDS011;8557;52.068;5.198;2023-02-26T15:26:21;1.17;;;0.45;;
16880;SDS011;8557;52.068;5.198;2023-02-26T15:28:51;2.10;;;0.60;;
16880;SDS011;8557;52.068;5.198;2023-02-26T15:31:26;0.85;;;0.50;;
16880;SDS011;8557;52.068;5.198;2023-02-26T15:33:57;1.38;;;0.50;;
16880;SDS011;8557;52.068;5.198;2023-02-26T15:36:24;0.93;;;0.47;;
16880;SDS011;8557;52.068;5.198;2023-02-26T15:38:54;2.50;;;0.73;;
16880;SDS011;8557;52.068;5.198;2023-02-26T15:41:23;1.25;;;0.68;;
16880;SDS011;8557;52.068;5.198;2023-02-26T15:43:54;1.65;;;0.60;;
16880;SDS011;8557;52.068;5.198;2023-02-26T15:46:26;1.00;;;0.68;;
16880;SDS011;8557;52.068;5.198;2023-02-26T15:48:58;0.90;;;0.73;;
16880;SDS011;8557;52.068;5.198;2023-02-26T15:51:26;2.05;;;0.93;;